sensor_id;sensor_type;location;lat;lon;timestamp;temperature;humidity
19972;DHT22;10147;16.402;102.848;2023-04-07T00:00:25;27.60;99.90
19972;DHT22;10147;16.402;102.848;2023-04-07T00:02:56;27.50;99.90
19972;DHT22;10147;16.402;102.848;2023-04-07T00:05:26;27.40;99.90
19972;DHT22;10147;16.402;102.848;2023-04-07T00:07:56;27.30;99.90
19972;DHT22;10147;16.402;102.848;2023-04-07T00:10:26;27.20;99.90
19972;DHT22;10147;16.402;102.848;2023-04-07T00:12:56;27.20;99.90
19972;DHT22;10147;16.402;102.848;2023-04-07T00:15:26;27.30;99.90
19972;DHT22;10147;16.402;102.848;2023-04-07T00:17:56;27.40;99.90
19972;DHT22;10147;16.402;102.848;2023-04-07T00:20:26;27.50;99.90
19972;DHT22;10147;16.402;102.848;2023-04-07T00:22:56;27.60;99.90
19972;DHT22;10147;16.402;102.848;2023-04-07T00:25:25;27.70;99.90
19972;DHT22;10147;16.402;102.848;2023-04-07T00:27:55;27.70;99.90
19972;DHT22;10147;16.402;102.848;2023-04-07T00:30:26;27.80;99.90
19972;DHT22;10147;16.402;102.848;2023-04-07T00:32:56;27.90;99.90
19972;DHT22;10147;16.402;102.848;2023-04-07T00:35:26;28.00;99.90
19972;DHT22;10147;16.402;102.848;2023-04-07T00:37:56;28.10;99.90
19972;DHT22;10147;16.402;102.848;2023-04-07T00:40:26;28.10;99.90
19972;DHT22;10147;16.402;102.848;2023-04-07T00:42:56;28.10;99.90
19972;DHT22;10147;16.402;102.848;2023-04-07T00:45:27;28.20;99.90
19972;DHT22;10147;16.402;102.848;2023-04-07T00:47:57;28.30;99.90
19972;DHT22;10147;16.402;102.848;2023-04-07T00:50:28;28.40;99.90
19972;DHT22;10147;16.402;102.848;2023-04-07T00:52:58;28.50;99.90
19972;DHT22;10147;16.402;102.848;2023-04-07T00:55:28;28.60;99.90
19972;DHT22;10147;16.402;102.848;2023-04-07T00:57:58;28.70;99.90
19972;DHT22;10147;16.402;102.848;2023-04-07T01:00:32;28.70;99.90
19972;DHT22;10147;16.402;102.848;2023-04-07T01:03:08;28.80;99.90
19972;DHT22;10147;16.402;102.848;2023-04-07T01:05:53;28.90;99.90
19972;DHT22;10147;16.402;102.848;2023-04-07T01:08:37;29.10;99.90
19972;DHT22;10147;16.402;102.848;2023-04-07T01:11:42;29.10;99.90
19972;DHT22;10147;16.402;102.848;2023-04-07T01:14:18;29.20;99.90
19972;DHT22;10147;16.402;102.848;2023-04-07T01:17:01;29.30;99.90
19972;DHT22;10147;16.402;102.848;2023-04-07T01:19:55;29.40;99.90
19972;DHT22;10147;16.402;102.848;2023-04-07T01:22:40;29.50;99.90
19972;DHT22;10147;16.402;102.848;2023-04-07T01:28:48;29.80;99.90
19972;DHT22;10147;16.402;102.848;2023-04-07T01:31:25;29.90;99.90
19972;DHT22;10147;16.402;102.848;2023-04-07T01:33:58;30.00;99.90
19972;DHT22;10147;16.402;102.848;2023-04-07T01:36:30;30.10;99.90
19972;DHT22;10147;16.402;102.848;2023-04-07T01:39:05;30.30;99.90
19972;DHT22;10147;16.402;102.848;2023-04-07T01:41:37;30.30;99.90
19972;DHT22;10147;16.402;102.848;2023-04-07T01:44:09;30.40;99.90
19972;DHT22;10147;16.402;102.848;2023-04-07T01:46:40;30.50;99.90
19972;DHT22;10147;16.402;102.848;2023-04-07T01:49:12;30.70;99.90
19972;DHT22;10147;16.402;102.848;2023-04-07T01:51:42;30.80;99.90
19972;DHT22;10147;16.402;102.848;2023-04-07T01:54:13;30.80;99.90
19972;DHT22;10147;16.402;102.848;2023-04-07T01:56:44;30.80;99.90
19972;DHT22;10147;16.402;102.848;2023-04-07T01:59:15;30.90;99.90
19972;DHT22;10147;16.402;102.848;2023-04-07T02:01:46;30.90;99.90
19972;DHT22;10147;16.402;102.848;2023-04-07T02:04:36;31.00;99.90
19972;DHT22;10147;16.402;102.848;2023-04-07T02:07:17;31.10;99.90
19972;DHT22;10147;16.402;102.848;2023-04-07T02:09:51;31.10;99.90
19972;DHT22;10147;16.402;102.848;2023-04-07T02:12:24;31.10;99.90
19972;DHT22;10147;16.402;102.848;2023-04-07T02:15:08;31.20;99.90
19972;DHT22;10147;16.402;102.848;2023-04-07T02:17:45;31.40;99.90
19972;DHT22;10147;16.402;102.848;2023-04-07T02:20:19;31.50;99.90
19972;DHT22;10147;16.402;102.848;2023-04-07T02:22:50;31.40;99.90
19972;DHT22;10147;16.402;102.848;2023-04-07T02:25:23;31.50;99.90
19972;DHT22;10147;16.402;102.848;2023-04-07T02:27:54;31.50;99.90
19972;DHT22;10147;16.402;102.848;2023-04-07T02:30:27;31.50;99.90
19972;DHT22;10147;16.402;102.848;2023-04-07T02:32:57;31.50;99.90
19972;DHT22;10147;16.402;102.848;2023-04-07T02:35:27;31.60;99.90
19972;DHT22;10147;16.402;102.848;2023-04-07T02:38:00;31.60;99.90
19972;DHT22;10147;16.402;102.848;2023-04-07T02:40:36;31.70;99.90
19972;DHT22;10147;16.402;102.848;2023-04-07T02:43:15;31.70;99.90
19972;DHT22;10147;16.402;102.848;2023-04-07T02:45:51;31.90;99.90
19972;DHT22;10147;16.402;102.848;2023-04-07T02:48:21;31.90;99.90
19972;DHT22;10147;16.402;102.848;2023-04-07T02:50:50;31.90;99.90
19972;DHT22;10147;16.402;102.848;2023-04-07T02:53:21;32.00;99.90
19972;DHT22;10147;16.402;102.848;2023-04-07T02:55:50;32.10;99.90
19972;DHT22;10147;16.402;102.848;2023-04-07T02:58:21;32.20;99.90
19972;DHT22;10147;16.402;102.848;2023-04-07T03:00:51;32.30;99.90
19972;DHT22;10147;16.402;102.848;2023-04-07T03:03:24;32.50;99.90
19972;DHT22;10147;16.402;102.848;2023-04-07T03:06:06;32.50;99.90
19972;DHT22;10147;16.402;102.848;2023-04-07T03:08:46;32.60;99.70
19972;DHT22;10147;16.402;102.848;2023-04-07T03:11:17;32.60;99.90
19972;DHT22;10147;16.402;102.848;2023-04-07T03:13:47;32.80;99.90
19972;DHT22;10147;16.402;102.848;2023-04-07T03:16:17;32.70;99.20
19972;DHT22;10147;16.402;102.848;2023-04-07T03:19:00;32.90;99.60
19972;DHT22;10147;16.402;102.848;2023-04-07T03:21:36;32.90;99.60
19972;DHT22;10147;16.402;102.848;2023-04-07T03:24:08;33.10;99.20
19972;DHT22;10147;16.402;102.848;2023-04-07T03:26:38;33.30;98.70
19972;DHT22;10147;16.402;102.848;2023-04-07T03:29:18;33.40;98.20
19972;DHT22;10147;16.402;102.848;2023-04-07T03:31:49;33.50;98.80
19972;DHT22;10147;16.402;102.848;2023-04-07T03:34:22;33.60;98.90
19972;DHT22;10147;16.402;102.848;2023-04-07T03:36:52;33.70;99.20
19972;DHT22;10147;16.402;102.848;2023-04-07T03:39:22;33.80;98.50
19972;DHT22;10147;16.402;102.848;2023-04-07T03:41:57;33.90;98.50
19972;DHT22;10147;16.402;102.848;2023-04-07T03:44:31;34.00;97.80
19972;DHT22;10147;16.402;102.848;2023-04-07T03:47:01;34.00;98.50
19972;DHT22;10147;16.402;102.848;2023-04-07T03:49:32;33.90;97.40
19972;DHT22;10147;16.402;102.848;2023-04-07T03:52:03;34.00;98.10
19972;DHT22;10147;16.402;102.848;2023-04-07T03:54:34;34.00;97.80
19972;DHT22;10147;16.402;102.848;2023-04-07T03:57:05;34.00;97.80
19972;DHT22;10147;16.402;102.848;2023-04-07T03:59:41;34.10;98.70
19972;DHT22;10147;16.402;102.848;2023-04-07T04:02:11;34.10;98.70
19972;DHT22;10147;16.402;102.848;2023-04-07T04:04:42;34.20;98.90
19972;DHT22;10147;16.402;102.848;2023-04-07T04:07:13;34.10;98.60
19972;DHT22;10147;16.402;102.848;2023-04-07T04:09:47;34.10;98.70
19972;DHT22;10147;16.402;102.848;2023-04-07T04:12:18;34.10;98.40
19972;DHT22;10147;16.402;102.848;2023-04-07T04:15:01;34.10;97.60
19972;DHT22;10147;16.402;102.848;2023-04-07T04:17:31;34.00;98.70
19972;DHT22;10147;16.402;102.848;2023-04-07T04:20:04;34.00;98.50
19972;DHT22;10147;16.402;102.848;2023-04-07T04:22:42;34.10;98.90
19972;DHT22;10147;16.402;102.848;2023-04-07T04:25:12;34.10;99.30
19972;DHT22;10147;16.402;102.848;2023-04-07T04:27:47;34.20;98.90
19972;DHT22;10147;16.402;102.848;2023-04-07T04:30:21;34.10;99.40
19972;DHT22;10147;16.402;102.848;2023-04-07T04:32:55;34.30;98.70
19972;DHT22;10147;16.402;102.848;2023-04-07T04:35:34;34.30;99.60
19972;DHT22;10147;16.402;102.848;2023-04-07T04:38:15;34.40;99.90
19972;DHT22;10147;16.402;102.848;2023-04-07T04:40:57;34.40;99.90
19972;DHT22;10147;16.402;102.848;2023-04-07T04:43:30;34.40;99.90
19972;DHT22;10147;16.402;102.848;2023-04-07T04:46:02;34.30;99.10
19972;DHT22;10147;16.402;102.848;2023-04-07T04:48:37;34.50;99.40
19972;DHT22;10147;16.402;102.848;2023-04-07T04:51:07;34.50;99.20
19972;DHT22;10147;16.402;102.848;2023-04-07T04:53:40;34.60;99.90
19972;DHT22;10147;16.402;102.848;2023-04-07T04:56:10;34.60;99.90
19972;DHT22;10147;16.402;102.848;2023-04-07T04:58:44;34.60;99.90
19972;DHT22;10147;16.402;102.848;2023-04-07T05:01:36;34.60;99.90
19972;DHT22;10147;16.402;102.848;2023-04-07T05:04:10;34.60;99.90
19972;DHT22;10147;16.402;102.848;2023-04-07T05:06:47;34.70;99.90
19972;DHT22;10147;16.402;102.848;2023-04-07T05:09:20;34.90;99.90
19972;DHT22;10147;16.402;102.848;2023-04-07T05:11:51;35.00;99.90
19972;DHT22;10147;16.402;102.848;2023-04-07T05:14:21;35.10;99.90
19972;DHT22;10147;16.402;102.848;2023-04-07T05:16:57;35.30;99.90
19972;DHT22;10147;16.402;102.848;2023-04-07T05:19:29;35.40;99.90
19972;DHT22;10147;16.402;102.848;2023-04-07T05:22:05;35.60;99.90
19972;DHT22;10147;16.402;102.848;2023-04-07T05:24:42;35.70;99.90
19972;DHT22;10147;16.402;102.848;2023-04-07T05:27:12;35.90;99.90
19972;DHT22;10147;16.402;102.848;2023-04-07T05:29:44;35.90;99.70
19972;DHT22;10147;16.402;102.848;2023-04-07T05:32:23;36.00;98.80
19972;DHT22;10147;16.402;102.848;2023-04-07T05:34:54;36.10;99.50
19972;DHT22;10147;16.402;102.848;2023-04-07T05:37:29;36.20;99.90
19972;DHT22;10147;16.402;102.848;2023-04-07T05:40:03;36.40;98.30
19972;DHT22;10147;16.402;102.848;2023-04-07T05:42:34;36.20;98.40
19972;DHT22;10147;16.402;102.848;2023-04-07T05:45:04;36.30;96.90
19972;DHT22;10147;16.402;102.848;2023-04-07T05:47:38;36.70;97.90
19972;DHT22;10147;16.402;102.848;2023-04-07T05:50:10;36.90;97.10
19972;DHT22;10147;16.402;102.848;2023-04-07T05:52:45;36.90;96.90
19972;DHT22;10147;16.402;102.848;2023-04-07T05:55:24;37.10;97.20
19972;DHT22;10147;16.402;102.848;2023-04-07T05:57:54;37.30;97.90
19972;DHT22;10147;16.402;102.848;2023-04-07T06:00:28;37.40;96.90
19972;DHT22;10147;16.402;102.848;2023-04-07T06:03:04;37.40;96.00
19972;DHT22;10147;16.402;102.848;2023-04-07T06:05:46;37.40;96.00
19972;DHT22;10147;16.402;102.848;2023-04-07T06:08:19;37.30;96.90
19972;DHT22;10147;16.402;102.848;2023-04-07T06:10:49;37.50;96.30
19972;DHT22;10147;16.402;102.848;2023-04-07T06:13:19;37.30;96.50
19972;DHT22;10147;16.402;102.848;2023-04-07T06:15:49;37.40;96.30
19972;DHT22;10147;16.402;102.848;2023-04-07T06:18:19;37.50;96.70
19972;DHT22;10147;16.402;102.848;2023-04-07T06:20:49;37.60;96.70
19972;DHT22;10147;16.402;102.848;2023-04-07T06:23:19;37.70;96.90
19972;DHT22;10147;16.402;102.848;2023-04-07T06:25:49;37.80;96.90
19972;DHT22;10147;16.402;102.848;2023-04-07T06:28:22;37.80;96.10
19972;DHT22;10147;16.402;102.848;2023-04-07T06:30:51;37.90;97.00
19972;DHT22;10147;16.402;102.848;2023-04-07T06:33:23;37.80;96.00
19972;DHT22;10147;16.402;102.848;2023-04-07T06:35:53;37.70;96.60
19972;DHT22;10147;16.402;102.848;2023-04-07T06:38:25;37.70;97.30
19972;DHT22;10147;16.402;102.848;2023-04-07T06:40:58;38.00;97.10
19972;DHT22;10147;16.402;102.848;2023-04-07T06:43:28;38.20;96.80
19972;DHT22;10147;16.402;102.848;2023-04-07T06:46:03;38.20;96.90
19972;DHT22;10147;16.402;102.848;2023-04-07T06:48:34;38.10;96.10
19972;DHT22;10147;16.402;102.848;2023-04-07T06:51:04;38.10;96.30
19972;DHT22;10147;16.402;102.848;2023-04-07T06:53:34;38.10;96.00
19972;DHT22;10147;16.402;102.848;2023-04-07T06:56:07;38.10;96.40
19972;DHT22;10147;16.402;102.848;2023-04-07T06:58:37;38.20;96.40
19972;DHT22;10147;16.402;102.848;2023-04-07T07:01:07;38.20;96.70
19972;DHT22;10147;16.402;102.848;2023-04-07T07:03:40;38.30;96.80
19972;DHT22;10147;16.402;102.848;2023-04-07T07:06:10;38.30;96.30
19972;DHT22;10147;16.402;102.848;2023-04-07T07:08:40;38.50;96.00
19972;DHT22;10147;16.402;102.848;2023-04-07T07:11:10;38.50;95.70
19972;DHT22;10147;16.402;102.848;2023-04-07T07:13:40;38.60;96.40
19972;DHT22;10147;16.402;102.848;2023-04-07T07:16:10;38.60;96.10
19972;DHT22;10147;16.402;102.848;2023-04-07T07:18:41;38.60;95.70
19972;DHT22;10147;16.402;102.848;2023-04-07T07:21:11;38.70;96.00
19972;DHT22;10147;16.402;102.848;2023-04-07T07:23:41;38.70;95.30
19972;DHT22;10147;16.402;102.848;2023-04-07T07:26:11;38.70;95.20
19972;DHT22;10147;16.402;102.848;2023-04-07T07:28:41;38.60;95.00
19972;DHT22;10147;16.402;102.848;2023-04-07T07:31:20;38.30;94.90
19972;DHT22;10147;16.402;102.848;2023-04-07T07:33:50;37.90;95.00
19972;DHT22;10147;16.402;102.848;2023-04-07T07:36:20;38.00;95.50
19972;DHT22;10147;16.402;102.848;2023-04-07T07:38:50;38.20;94.70
19972;DHT22;10147;16.402;102.848;2023-04-07T07:41:20;38.20;94.70
19972;DHT22;10147;16.402;102.848;2023-04-07T07:43:50;38.20;95.70
19972;DHT22;10147;16.402;102.848;2023-04-07T07:46:21;38.30;95.10
19972;DHT22;10147;16.402;102.848;2023-04-07T07:48:53;38.30;94.80
19972;DHT22;10147;16.402;102.848;2023-04-07T07:51:22;38.40;95.00
19972;DHT22;10147;16.402;102.848;2023-04-07T07:53:52;38.40;94.70
19972;DHT22;10147;16.402;102.848;2023-04-07T07:56:22;38.40;95.50
19972;DHT22;10147;16.402;102.848;2023-04-07T07:58:52;38.60;95.40
19972;DHT22;10147;16.402;102.848;2023-04-07T08:01:25;38.60;94.90
19972;DHT22;10147;16.402;102.848;2023-04-07T08:03:55;38.60;95.20
19972;DHT22;10147;16.402;102.848;2023-04-07T08:06:25;38.60;94.70
19972;DHT22;10147;16.402;102.848;2023-04-07T08:08:57;38.60;94.80
19972;DHT22;10147;16.402;102.848;2023-04-07T08:11:27;38.40;93.80
19972;DHT22;10147;16.402;102.848;2023-04-07T08:13:57;38.60;94.10
19972;DHT22;10147;16.402;102.848;2023-04-07T08:16:27;38.60;93.60
19972;DHT22;10147;16.402;102.848;2023-04-07T08:18:57;38.70;94.00
19972;DHT22;10147;16.402;102.848;2023-04-07T08:21:27;38.70;93.60
19972;DHT22;10147;16.402;102.848;2023-04-07T08:23:57;38.60;93.70
19972;DHT22;10147;16.402;102.848;2023-04-07T08:26:27;38.70;93.70
19972;DHT22;10147;16.402;102.848;2023-04-07T08:28:57;38.60;92.70
19972;DHT22;10147;16.402;102.848;2023-04-07T08:31:27;38.50;93.10
19972;DHT22;10147;16.402;102.848;2023-04-07T08:33:57;38.60;94.10
19972;DHT22;10147;16.402;102.848;2023-04-07T08:36:27;38.50;92.60
19972;DHT22;10147;16.402;102.848;2023-04-07T08:38:58;38.40;93.70
19972;DHT22;10147;16.402;102.848;2023-04-07T08:41:37;38.50;93.40
19972;DHT22;10147;16.402;102.848;2023-04-07T08:44:07;38.50;93.50
19972;DHT22;10147;16.402;102.848;2023-04-07T08:46:39;38.50;92.80
19972;DHT22;10147;16.402;102.848;2023-04-07T08:49:10;38.60;93.00
19972;DHT22;10147;16.402;102.848;2023-04-07T08:51:45;38.60;92.30
19972;DHT22;10147;16.402;102.848;2023-04-07T08:54:17;38.60;92.10
19972;DHT22;10147;16.402;102.848;2023-04-07T08:56:50;38.50;92.40
19972;DHT22;10147;16.402;102.848;2023-04-07T08:59:21;38.40;92.00
19972;DHT22;10147;16.402;102.848;2023-04-07T09:01:55;38.40;92.10
19972;DHT22;10147;16.402;102.848;2023-04-07T09:04:27;38.30;92.00
19972;DHT22;10147;16.402;102.848;2023-04-07T09:06:57;38.40;91.80
19972;DHT22;10147;16.402;102.848;2023-04-07T09:09:27;38.30;92.10
19972;DHT22;10147;16.402;102.848;2023-04-07T09:11:58;38.30;91.90
19972;DHT22;10147;16.402;102.848;2023-04-07T09:14:31;38.30;93.20
19972;DHT22;10147;16.402;102.848;2023-04-07T09:17:04;38.20;93.60
19972;DHT22;10147;16.402;102.848;2023-04-07T09:19:34;38.20;93.40
19972;DHT22;10147;16.402;102.848;2023-04-07T09:22:04;38.20;93.50
19972;DHT22;10147;16.402;102.848;2023-04-07T09:24:34;38.10;93.10
19972;DHT22;10147;16.402;102.848;2023-04-07T09:27:15;37.90;93.70
19972;DHT22;10147;16.402;102.848;2023-04-07T09:29:47;38.00;93.70
19972;DHT22;10147;16.402;102.848;2023-04-07T09:32:36;37.80;93.50
19972;DHT22;10147;16.402;102.848;2023-04-07T09:35:08;37.70;93.90
19972;DHT22;10147;16.402;102.848;2023-04-07T09:37:38;37.80;93.90
19972;DHT22;10147;16.402;102.848;2023-04-07T09:40:09;37.70;94.20
19972;DHT22;10147;16.402;102.848;2023-04-07T09:42:45;37.70;94.20
19972;DHT22;10147;16.402;102.848;2023-04-07T09:45:24;37.60;94.90
19972;DHT22;10147;16.402;102.848;2023-04-07T09:51:05;37.40;95.50
19972;DHT22;10147;16.402;102.848;2023-04-07T09:53:47;37.20;95.60
19972;DHT22;10147;16.402;102.848;2023-04-07T09:56:19;37.30;95.80
19972;DHT22;10147;16.402;102.848;2023-04-07T09:58:50;37.30;95.40
19972;DHT22;10147;16.402;102.848;2023-04-07T10:01:21;37.30;95.40
19972;DHT22;10147;16.402;102.848;2023-04-07T10:03:51;37.20;95.30
19972;DHT22;10147;16.402;102.848;2023-04-07T10:06:22;37.10;95.70
19972;DHT22;10147;16.402;102.848;2023-04-07T10:08:52;37.00;95.60
19972;DHT22;10147;16.402;102.848;2023-04-07T10:11:22;37.00;95.90
19972;DHT22;10147;16.402;102.848;2023-04-07T10:13:51;36.90;95.90
19972;DHT22;10147;16.402;102.848;2023-04-07T10:16:22;36.80;96.10
19972;DHT22;10147;16.402;102.848;2023-04-07T10:18:52;36.80;96.30
19972;DHT22;10147;16.402;102.848;2023-04-07T10:21:23;36.80;96.80
19972;DHT22;10147;16.402;102.848;2023-04-07T10:26:55;36.70;96.60
19972;DHT22;10147;16.402;102.848;2023-04-07T10:29:31;36.70;96.60
19972;DHT22;10147;16.402;102.848;2023-04-07T10:32:03;36.60;96.80
19972;DHT22;10147;16.402;102.848;2023-04-07T10:34:54;36.60;96.90
19972;DHT22;10147;16.402;102.848;2023-04-07T10:37:26;36.50;97.00
19972;DHT22;10147;16.402;102.848;2023-04-07T10:43:06;36.40;97.20
19972;DHT22;10147;16.402;102.848;2023-04-07T10:46:01;36.30;97.10
19972;DHT22;10147;16.402;102.848;2023-04-07T10:48:32;36.30;97.50
19972;DHT22;10147;16.402;102.848;2023-04-07T10:51:20;36.20;97.40
19972;DHT22;10147;16.402;102.848;2023-04-07T10:54:17;36.10;97.20
19972;DHT22;10147;16.402;102.848;2023-04-07T10:57:09;36.00;97.20
19972;DHT22;10147;16.402;102.848;2023-04-07T11:00:13;36.10;97.50
19972;DHT22;10147;16.402;102.848;2023-04-07T11:02:32;35.90;97.90
19972;DHT22;10147;16.402;102.848;2023-04-07T11:05:03;35.90;98.00
19972;DHT22;10147;16.402;102.848;2023-04-07T11:07:52;35.80;98.20
19972;DHT22;10147;16.402;102.848;2023-04-07T11:10:27;35.80;98.70
19972;DHT22;10147;16.402;102.848;2023-04-07T11:13:03;35.90;98.30
19972;DHT22;10147;16.402;102.848;2023-04-07T11:15:34;35.70;98.50
19972;DHT22;10147;16.402;102.848;2023-04-07T11:18:17;35.70;98.50
19972;DHT22;10147;16.402;102.848;2023-04-07T11:20:55;35.60;99.10
19972;DHT22;10147;16.402;102.848;2023-04-07T11:23:27;35.60;99.30
19972;DHT22;10147;16.402;102.848;2023-04-07T11:26:01;35.50;99.90
19972;DHT22;10147;16.402;102.848;2023-04-07T11:28:32;35.50;99.90
19972;DHT22;10147;16.402;102.848;2023-04-07T11:31:02;35.40;99.90
19972;DHT22;10147;16.402;102.848;2023-04-07T11:33:32;35.40;99.90
19972;DHT22;10147;16.402;102.848;2023-04-07T11:36:06;35.40;99.90
19972;DHT22;10147;16.402;102.848;2023-04-07T11:38:37;35.20;99.90
19972;DHT22;10147;16.402;102.848;2023-04-07T11:41:12;35.10;99.90
19972;DHT22;10147;16.402;102.848;2023-04-07T11:43:42;35.10;99.90
19972;DHT22;10147;16.402;102.848;2023-04-07T11:46:17;35.00;99.90
19972;DHT22;10147;16.402;102.848;2023-04-07T11:48:47;35.00;99.90
19972;DHT22;10147;16.402;102.848;2023-04-07T11:51:19;35.00;99.90
19972;DHT22;10147;16.402;102.848;2023-04-07T11:53:55;34.80;99.90
19972;DHT22;10147;16.402;102.848;2023-04-07T11:56:26;34.70;99.90
19972;DHT22;10147;16.402;102.848;2023-04-07T11:58:56;34.70;99.90
19972;DHT22;10147;16.402;102.848;2023-04-07T12:01:39;34.70;99.90
19972;DHT22;10147;16.402;102.848;2023-04-07T12:04:13;34.60;99.90
19972;DHT22;10147;16.402;102.848;2023-04-07T12:06:47;34.70;99.90
19972;DHT22;10147;16.402;102.848;2023-04-07T12:09:32;34.70;99.90
19972;DHT22;10147;16.402;102.848;2023-04-07T12:12:05;34.60;99.90
19972;DHT22;10147;16.402;102.848;2023-04-07T12:14:36;34.60;99.90
19972;DHT22;10147;16.402;102.848;2023-04-07T12:17:06;34.60;99.90
19972;DHT22;10147;16.402;102.848;2023-04-07T12:19:38;34.70;99.90
19972;DHT22;10147;16.402;102.848;2023-04-07T12:22:09;34.50;99.90
19972;DHT22;10147;16.402;102.848;2023-04-07T12:24:39;34.30;99.90
19972;DHT22;10147;16.402;102.848;2023-04-07T12:27:09;34.20;99.90
19972;DHT22;10147;16.402;102.848;2023-04-07T12:29:40;34.30;99.90
19972;DHT22;10147;16.402;102.848;2023-04-07T12:32:10;34.40;99.90
19972;DHT22;10147;16.402;102.848;2023-04-07T12:34:40;34.40;99.90
19972;DHT22;10147;16.402;102.848;2023-04-07T12:37:10;34.50;99.90
19972;DHT22;10147;16.402;102.848;2023-04-07T12:39:40;34.40;99.90
19972;DHT22;10147;16.402;102.848;2023-04-07T12:42:09;34.30;99.90
19972;DHT22;10147;16.402;102.848;2023-04-07T12:44:40;34.10;99.90
19972;DHT22;10147;16.402;102.848;2023-04-07T12:47:10;34.10;99.90
19972;DHT22;10147;16.402;102.848;2023-04-07T12:49:40;34.10;99.90
19972;DHT22;10147;16.402;102.848;2023-04-07T12:52:10;34.10;99.90
19972;DHT22;10147;16.402;102.848;2023-04-07T12:54:40;33.90;99.90
19972;DHT22;10147;16.402;102.848;2023-04-07T12:57:12;33.90;99.90
19972;DHT22;10147;16.402;102.848;2023-04-07T12:59:42;34.00;99.90
19972;DHT22;10147;16.402;102.848;2023-04-07T13:02:13;34.00;99.90
19972;DHT22;10147;16.402;102.848;2023-04-07T13:04:43;34.00;99.90
19972;DHT22;10147;16.402;102.848;2023-04-07T13:07:15;34.10;99.90
19972;DHT22;10147;16.402;102.848;2023-04-07T13:09:45;34.10;99.90
19972;DHT22;10147;16.402;102.848;2023-04-07T13:12:15;34.10;99.90
19972;DHT22;10147;16.402;102.848;2023-04-07T13:14:45;34.10;99.90
19972;DHT22;10147;16.402;102.848;2023-04-07T13:17:27;34.10;99.90
19972;DHT22;10147;16.402;102.848;2023-04-07T13:19:57;34.00;99.90
19972;DHT22;10147;16.402;102.848;2023-04-07T13:22:27;33.90;99.90
19972;DHT22;10147;16.402;102.848;2023-04-07T13:24:58;33.90;99.90
19972;DHT22;10147;16.402;102.848;2023-04-07T13:27:29;33.80;99.90
19972;DHT22;10147;16.402;102.848;2023-04-07T13:29:59;33.80;99.90
19972;DHT22;10147;16.402;102.848;2023-04-07T13:32:29;33.80;99.90
19972;DHT22;10147;16.402;102.848;2023-04-07T13:34:59;33.80;99.90
19972;DHT22;10147;16.402;102.848;2023-04-07T13:37:29;33.80;99.90
19972;DHT22;10147;16.402;102.848;2023-04-07T13:39:59;33.80;99.90
19972;DHT22;10147;16.402;102.848;2023-04-07T13:42:29;33.70;99.90
19972;DHT22;10147;16.402;102.848;2023-04-07T13:44:59;33.50;99.90
19972;DHT22;10147;16.402;102.848;2023-04-07T13:47:29;33.60;99.90
19972;DHT22;10147;16.402;102.848;2023-04-07T13:50:03;33.50;99.90
19972;DHT22;10147;16.402;102.848;2023-04-07T13:52:33;33.50;99.90
19972;DHT22;10147;16.402;102.848;2023-04-07T13:55:03;33.50;99.90
19972;DHT22;10147;16.402;102.848;2023-04-07T13:57:33;33.50;99.90
19972;DHT22;10147;16.402;102.848;2023-04-07T14:00:04;33.50;99.90
19972;DHT22;10147;16.402;102.848;2023-04-07T14:02:35;33.50;99.90
19972;DHT22;10147;16.402;102.848;2023-04-07T14:05:05;33.50;99.90
19972;DHT22;10147;16.402;102.848;2023-04-07T14:07:35;33.50;99.90
19972;DHT22;10147;16.402;102.848;2023-04-07T14:10:05;33.50;99.90
19972;DHT22;10147;16.402;102.848;2023-04-07T14:12:37;33.40;99.90
19972;DHT22;10147;16.402;102.848;2023-04-07T14:15:08;33.40;99.90
19972;DHT22;10147;16.402;102.848;2023-04-07T14:17:38;33.50;99.90
19972;DHT22;10147;16.402;102.848;2023-04-07T14:20:08;33.50;99.90
19972;DHT22;10147;16.402;102.848;2023-04-07T14:22:38;33.40;99.90
19972;DHT22;10147;16.402;102.848;2023-04-07T14:25:09;33.40;99.90
19972;DHT22;10147;16.402;102.848;2023-04-07T14:27:39;33.40;99.90
19972;DHT22;10147;16.402;102.848;2023-04-07T14:30:10;33.30;99.90
19972;DHT22;10147;16.402;102.848;2023-04-07T14:32:40;33.30;99.90
19972;DHT22;10147;16.402;102.848;2023-04-07T14:35:10;33.20;99.90
19972;DHT22;10147;16.402;102.848;2023-04-07T14:37:40;33.20;99.90
19972;DHT22;10147;16.402;102.848;2023-04-07T14:40:10;33.30;99.90
19972;DHT22;10147;16.402;102.848;2023-04-07T14:42:40;33.20;99.90
19972;DHT22;10147;16.402;102.848;2023-04-07T14:45:10;33.20;99.90
19972;DHT22;10147;16.402;102.848;2023-04-07T14:47:41;33.10;99.90
19972;DHT22;10147;16.402;102.848;2023-04-07T14:50:11;33.00;99.90
19972;DHT22;10147;16.402;102.848;2023-04-07T14:52:41;32.90;99.90
19972;DHT22;10147;16.402;102.848;2023-04-07T14:55:12;33.00;99.90
19972;DHT22;10147;16.402;102.848;2023-04-07T14:57:42;33.00;99.90
19972;DHT22;10147;16.402;102.848;2023-04-07T15:00:12;33.00;99.90
19972;DHT22;10147;16.402;102.848;2023-04-07T15:02:42;33.10;99.90
19972;DHT22;10147;16.402;102.848;2023-04-07T15:05:12;33.10;99.90
19972;DHT22;10147;16.402;102.848;2023-04-07T15:07:42;33.30;99.90
19972;DHT22;10147;16.402;102.848;2023-04-07T15:10:14;33.30;99.90
19972;DHT22;10147;16.402;102.848;2023-04-07T15:12:45;33.20;99.90
19972;DHT22;10147;16.402;102.848;2023-04-07T15:15:17;33.30;99.90
19972;DHT22;10147;16.402;102.848;2023-04-07T15:17:47;33.10;99.90
19972;DHT22;10147;16.402;102.848;2023-04-07T15:20:17;33.00;99.90
19972;DHT22;10147;16.402;102.848;2023-04-07T15:22:47;32.90;99.90
19972;DHT22;10147;16.402;102.848;2023-04-07T15:25:17;32.90;99.90
19972;DHT22;10147;16.402;102.848;2023-04-07T15:27:47;32.90;99.90
19972;DHT22;10147;16.402;102.848;2023-04-07T15:30:17;32.80;99.90
19972;DHT22;10147;16.402;102.848;2023-04-07T15:33:06;32.80;99.90
19972;DHT22;10147;16.402;102.848;2023-04-07T15:35:37;32.80;99.90
19972;DHT22;10147;16.402;102.848;2023-04-07T15:38:07;32.80;99.90
19972;DHT22;10147;16.402;102.848;2023-04-07T15:40:37;32.80;99.90
19972;DHT22;10147;16.402;102.848;2023-04-07T15:43:07;32.70;99.90
19972;DHT22;10147;16.402;102.848;2023-04-07T15:45:41;32.60;99.90
19972;DHT22;10147;16.402;102.848;2023-04-07T15:48:12;32.70;99.90